sensor_id;sensor_type;location;lat;lon;timestamp;temperature;humidity
3350;DHT22;1688;51.000;13.684;2023-08-24T00:02:03;21.60;99.90
3350;DHT22;1688;51.000;13.684;2023-08-24T00:04:36;21.50;99.90
3350;DHT22;1688;51.000;13.684;2023-08-24T00:07:09;21.50;99.90
3350;DHT22;1688;51.000;13.684;2023-08-24T00:09:42;21.50;99.90
3350;DHT22;1688;51.000;13.684;2023-08-24T00:12:16;21.40;99.90
3350;DHT22;1688;51.000;13.684;2023-08-24T00:14:48;21.40;99.90
3350;DHT22;1688;51.000;13.684;2023-08-24T00:17:21;21.30;99.90
3350;DHT22;1688;51.000;13.684;2023-08-24T00:19:56;21.30;99.90
3350;DHT22;1688;51.000;13.684;2023-08-24T00:22:29;21.30;99.90
3350;DHT22;1688;51.000;13.684;2023-08-24T00:25:02;21.30;99.90
3350;DHT22;1688;51.000;13.684;2023-08-24T00:27:35;21.30;99.90
3350;DHT22;1688;51.000;13.684;2023-08-24T00:30:08;21.20;99.90
3350;DHT22;1688;51.000;13.684;2023-08-24T00:32:41;21.20;99.90
3350;DHT22;1688;51.000;13.684;2023-08-24T00:35:14;21.20;99.90
3350;DHT22;1688;51.000;13.684;2023-08-24T00:37:48;21.10;99.90
3350;DHT22;1688;51.000;13.684;2023-08-24T00:40:21;21.10;99.90
3350;DHT22;1688;51.000;13.684;2023-08-24T00:42:54;21.10;99.90
3350;DHT22;1688;51.000;13.684;2023-08-24T00:45:27;21.00;99.90
3350;DHT22;1688;51.000;13.684;2023-08-24T00:48:00;21.00;99.90
3350;DHT22;1688;51.000;13.684;2023-08-24T00:50:34;20.90;99.90
3350;DHT22;1688;51.000;13.684;2023-08-24T00:53:07;20.90;99.90
3350;DHT22;1688;51.000;13.684;2023-08-24T00:55:40;20.90;99.90
3350;DHT22;1688;51.000;13.684;2023-08-24T00:58:13;20.90;99.90
3350;DHT22;1688;51.000;13.684;2023-08-24T01:00:48;20.80;99.90
3350;DHT22;1688;51.000;13.684;2023-08-24T01:03:24;20.80;99.90
3350;DHT22;1688;51.000;13.684;2023-08-24T01:05:58;20.70;99.90
3350;DHT22;1688;51.000;13.684;2023-08-24T01:08:30;20.70;99.90
3350;DHT22;1688;51.000;13.684;2023-08-24T01:14:03;20.60;99.90
3350;DHT22;1688;51.000;13.684;2023-08-24T01:16:38;20.50;99.90
3350;DHT22;1688;51.000;13.684;2023-08-24T01:19:43;20.40;99.90
3350;DHT22;1688;51.000;13.684;2023-08-24T01:25:52;20.40;99.90
3350;DHT22;1688;51.000;13.684;2023-08-24T01:28:26;20.30;99.90
3350;DHT22;1688;51.000;13.684;2023-08-24T01:30:59;20.30;99.90
3350;DHT22;1688;51.000;13.684;2023-08-24T01:33:32;20.30;99.90
3350;DHT22;1688;51.000;13.684;2023-08-24T01:36:05;20.20;99.90
3350;DHT22;1688;51.000;13.684;2023-08-24T01:38:38;20.20;99.90
3350;DHT22;1688;51.000;13.684;2023-08-24T01:41:18;20.20;99.90
3350;DHT22;1688;51.000;13.684;2023-08-24T01:43:53;20.20;99.90
3350;DHT22;1688;51.000;13.684;2023-08-24T01:46:27;20.20;99.90
3350;DHT22;1688;51.000;13.684;2023-08-24T01:49:01;20.10;99.90
3350;DHT22;1688;51.000;13.684;2023-08-24T01:51:35;20.10;99.90
3350;DHT22;1688;51.000;13.684;2023-08-24T01:54:09;20.00;99.90
3350;DHT22;1688;51.000;13.684;2023-08-24T01:56:42;20.10;99.90
3350;DHT22;1688;51.000;13.684;2023-08-24T01:59:15;20.00;99.90
3350;DHT22;1688;51.000;13.684;2023-08-24T02:01:47;20.10;99.90
3350;DHT22;1688;51.000;13.684;2023-08-24T02:04:20;20.10;99.90
3350;DHT22;1688;51.000;13.684;2023-08-24T02:06:53;20.10;99.90
3350;DHT22;1688;51.000;13.684;2023-08-24T02:09:26;20.10;99.90
3350;DHT22;1688;51.000;13.684;2023-08-24T02:11:59;20.20;99.90
3350;DHT22;1688;51.000;13.684;2023-08-24T02:14:32;20.20;99.90
3350;DHT22;1688;51.000;13.684;2023-08-24T02:17:05;20.20;99.90
3350;DHT22;1688;51.000;13.684;2023-08-24T02:19:38;20.30;99.90
3350;DHT22;1688;51.000;13.684;2023-08-24T02:22:10;20.20;99.90
3350;DHT22;1688;51.000;13.684;2023-08-24T02:24:43;20.20;99.90
3350;DHT22;1688;51.000;13.684;2023-08-24T02:27:16;20.30;99.90
3350;DHT22;1688;51.000;13.684;2023-08-24T02:29:49;20.30;99.90
3350;DHT22;1688;51.000;13.684;2023-08-24T02:32:22;20.30;99.90
3350;DHT22;1688;51.000;13.684;2023-08-24T02:34:55;20.20;99.90
3350;DHT22;1688;51.000;13.684;2023-08-24T02:37:28;20.20;99.90
3350;DHT22;1688;51.000;13.684;2023-08-24T02:40:00;20.20;99.90
3350;DHT22;1688;51.000;13.684;2023-08-24T02:42:33;20.10;99.90
3350;DHT22;1688;51.000;13.684;2023-08-24T02:45:06;20.00;99.90
3350;DHT22;1688;51.000;13.684;2023-08-24T02:47:39;20.00;99.90
3350;DHT22;1688;51.000;13.684;2023-08-24T02:50:12;20.00;99.90
3350;DHT22;1688;51.000;13.684;2023-08-24T02:52:45;20.00;99.90
3350;DHT22;1688;51.000;13.684;2023-08-24T02:55:18;20.00;99.90
3350;DHT22;1688;51.000;13.684;2023-08-24T02:57:51;20.00;99.90
3350;DHT22;1688;51.000;13.684;2023-08-24T03:00:24;19.90;99.90
3350;DHT22;1688;51.000;13.684;2023-08-24T03:02:57;19.90;99.90
3350;DHT22;1688;51.000;13.684;2023-08-24T03:05:32;19.90;99.90
3350;DHT22;1688;51.000;13.684;2023-08-24T03:08:08;19.90;99.90
3350;DHT22;1688;51.000;13.684;2023-08-24T03:10:40;19.80;99.90
3350;DHT22;1688;51.000;13.684;2023-08-24T03:13:13;19.80;99.90
3350;DHT22;1688;51.000;13.684;2023-08-24T03:15:46;19.80;99.90
3350;DHT22;1688;51.000;13.684;2023-08-24T03:18:20;19.70;99.90
3350;DHT22;1688;51.000;13.684;2023-08-24T03:20:53;19.70;99.90
3350;DHT22;1688;51.000;13.684;2023-08-24T03:23:26;19.70;99.90
3350;DHT22;1688;51.000;13.684;2023-08-24T03:25:59;19.70;99.90
3350;DHT22;1688;51.000;13.684;2023-08-24T03:28:32;19.70;99.90
3350;DHT22;1688;51.000;13.684;2023-08-24T03:31:06;19.70;99.90
3350;DHT22;1688;51.000;13.684;2023-08-24T03:33:39;19.70;99.90
3350;DHT22;1688;51.000;13.684;2023-08-24T03:36:12;19.70;99.90
3350;DHT22;1688;51.000;13.684;2023-08-24T03:38:45;19.70;99.90
3350;DHT22;1688;51.000;13.684;2023-08-24T03:41:18;19.70;99.90
3350;DHT22;1688;51.000;13.684;2023-08-24T03:43:51;19.70;99.90
3350;DHT22;1688;51.000;13.684;2023-08-24T03:46:24;19.70;99.90
3350;DHT22;1688;51.000;13.684;2023-08-24T03:48:57;19.70;99.90
3350;DHT22;1688;51.000;13.684;2023-08-24T03:51:30;19.80;99.90
3350;DHT22;1688;51.000;13.684;2023-08-24T03:54:03;19.70;99.90
3350;DHT22;1688;51.000;13.684;2023-08-24T03:56:39;19.70;99.90
3350;DHT22;1688;51.000;13.684;2023-08-24T03:59:12;19.80;99.90
3350;DHT22;1688;51.000;13.684;2023-08-24T04:01:45;19.80;99.90
3350;DHT22;1688;51.000;13.684;2023-08-24T04:04:18;19.80;99.90
3350;DHT22;1688;51.000;13.684;2023-08-24T04:06:51;19.80;99.90
3350;DHT22;1688;51.000;13.684;2023-08-24T04:09:23;19.80;99.90
3350;DHT22;1688;51.000;13.684;2023-08-24T04:11:56;19.90;99.90
3350;DHT22;1688;51.000;13.684;2023-08-24T04:14:29;19.80;99.90
3350;DHT22;1688;51.000;13.684;2023-08-24T04:17:02;19.80;99.90
3350;DHT22;1688;51.000;13.684;2023-08-24T04:19:38;19.80;99.90
3350;DHT22;1688;51.000;13.684;2023-08-24T04:22:11;19.80;99.90
3350;DHT22;1688;51.000;13.684;2023-08-24T04:24:44;19.80;99.90
3350;DHT22;1688;51.000;13.684;2023-08-24T04:27:17;19.90;99.90
3350;DHT22;1688;51.000;13.684;2023-08-24T04:29:53;19.90;99.90
3350;DHT22;1688;51.000;13.684;2023-08-24T04:32:27;19.90;99.90
3350;DHT22;1688;51.000;13.684;2023-08-24T04:35:00;19.90;99.90
3350;DHT22;1688;51.000;13.684;2023-08-24T04:37:33;19.90;99.90
3350;DHT22;1688;51.000;13.684;2023-08-24T04:40:06;19.90;99.90
3350;DHT22;1688;51.000;13.684;2023-08-24T04:42:43;19.90;99.90
3350;DHT22;1688;51.000;13.684;2023-08-24T04:45:16;19.90;99.90
3350;DHT22;1688;51.000;13.684;2023-08-24T04:47:49;19.90;99.90
3350;DHT22;1688;51.000;13.684;2023-08-24T04:50:22;20.00;99.90
3350;DHT22;1688;51.000;13.684;2023-08-24T04:52:55;20.00;99.90
3350;DHT22;1688;51.000;13.684;2023-08-24T04:55:28;20.00;99.90
3350;DHT22;1688;51.000;13.684;2023-08-24T04:58:01;20.10;99.90
3350;DHT22;1688;51.000;13.684;2023-08-24T05:00:34;20.10;99.90
3350;DHT22;1688;51.000;13.684;2023-08-24T05:03:08;20.20;99.90
3350;DHT22;1688;51.000;13.684;2023-08-24T05:05:43;20.20;99.90
3350;DHT22;1688;51.000;13.684;2023-08-24T05:08:16;20.30;99.90
3350;DHT22;1688;51.000;13.684;2023-08-24T05:10:48;20.30;99.90
3350;DHT22;1688;51.000;13.684;2023-08-24T05:13:21;20.30;99.90
3350;DHT22;1688;51.000;13.684;2023-08-24T05:15:55;20.40;99.90
3350;DHT22;1688;51.000;13.684;2023-08-24T05:18:28;20.40;99.90
3350;DHT22;1688;51.000;13.684;2023-08-24T05:21:01;20.40;99.90
3350;DHT22;1688;51.000;13.684;2023-08-24T05:23:34;20.50;99.90
3350;DHT22;1688;51.000;13.684;2023-08-24T05:26:07;20.50;99.90
3350;DHT22;1688;51.000;13.684;2023-08-24T05:28:40;20.60;99.90
3350;DHT22;1688;51.000;13.684;2023-08-24T05:31:13;20.60;99.90
3350;DHT22;1688;51.000;13.684;2023-08-24T05:33:46;20.70;99.90
3350;DHT22;1688;51.000;13.684;2023-08-24T05:36:19;20.70;99.90
3350;DHT22;1688;51.000;13.684;2023-08-24T05:38:51;20.80;99.90
3350;DHT22;1688;51.000;13.684;2023-08-24T05:41:37;20.90;99.90
3350;DHT22;1688;51.000;13.684;2023-08-24T05:44:11;21.00;99.90
3350;DHT22;1688;51.000;13.684;2023-08-24T05:46:44;21.10;99.90
3350;DHT22;1688;51.000;13.684;2023-08-24T05:49:17;21.20;99.90
3350;DHT22;1688;51.000;13.684;2023-08-24T05:51:50;21.30;99.90
3350;DHT22;1688;51.000;13.684;2023-08-24T05:54:23;21.20;99.90
3350;DHT22;1688;51.000;13.684;2023-08-24T05:56:56;21.00;99.90
3350;DHT22;1688;51.000;13.684;2023-08-24T05:59:33;20.90;99.90
3350;DHT22;1688;51.000;13.684;2023-08-24T06:02:06;21.00;99.90
3350;DHT22;1688;51.000;13.684;2023-08-24T06:04:39;21.10;99.90
3350;DHT22;1688;51.000;13.684;2023-08-24T06:07:12;21.20;99.90
3350;DHT22;1688;51.000;13.684;2023-08-24T06:09:44;21.30;99.90
3350;DHT22;1688;51.000;13.684;2023-08-24T06:12:17;21.40;99.90
3350;DHT22;1688;51.000;13.684;2023-08-24T06:14:50;21.50;99.90
3350;DHT22;1688;51.000;13.684;2023-08-24T06:17:24;21.60;99.90
3350;DHT22;1688;51.000;13.684;2023-08-24T06:19:57;21.70;99.90
3350;DHT22;1688;51.000;13.684;2023-08-24T06:22:30;22.00;99.90
3350;DHT22;1688;51.000;13.684;2023-08-24T06:25:03;22.20;99.90
3350;DHT22;1688;51.000;13.684;2023-08-24T06:27:37;22.30;99.90
3350;DHT22;1688;51.000;13.684;2023-08-24T06:30:10;22.40;99.90
3350;DHT22;1688;51.000;13.684;2023-08-24T06:32:43;22.50;99.90
3350;DHT22;1688;51.000;13.684;2023-08-24T06:35:16;22.70;99.90
3350;DHT22;1688;51.000;13.684;2023-08-24T06:37:49;22.90;99.90
3350;DHT22;1688;51.000;13.684;2023-08-24T06:40:22;24.10;99.90
3350;DHT22;1688;51.000;13.684;2023-08-24T06:42:56;26.70;99.90
3350;DHT22;1688;51.000;13.684;2023-08-24T06:45:29;30.40;99.10
3350;DHT22;1688;51.000;13.684;2023-08-24T06:48:02;33.70;91.40
3350;DHT22;1688;51.000;13.684;2023-08-24T06:50:35;36.60;83.20
3350;DHT22;1688;51.000;13.684;2023-08-24T06:53:09;39.20;74.30
3350;DHT22;1688;51.000;13.684;2023-08-24T06:55:42;41.40;65.10
3350;DHT22;1688;51.000;13.684;2023-08-24T06:58:15;42.80;58.80
3350;DHT22;1688;51.000;13.684;2023-08-24T07:00:48;42.30;55.60
3350;DHT22;1688;51.000;13.684;2023-08-24T07:03:23;41.00;54.20
3350;DHT22;1688;51.000;13.684;2023-08-24T07:05:56;39.40;54.10
3350;DHT22;1688;51.000;13.684;2023-08-24T07:08:29;38.00;56.60
3350;DHT22;1688;51.000;13.684;2023-08-24T07:11:03;36.70;58.80
3350;DHT22;1688;51.000;13.684;2023-08-24T07:13:35;35.40;60.60
3350;DHT22;1688;51.000;13.684;2023-08-24T07:16:08;34.30;62.70
3350;DHT22;1688;51.000;13.684;2023-08-24T07:18:41;33.20;63.70
3350;DHT22;1688;51.000;13.684;2023-08-24T07:21:14;31.90;67.70
3350;DHT22;1688;51.000;13.684;2023-08-24T07:23:47;30.80;72.30
3350;DHT22;1688;51.000;13.684;2023-08-24T07:26:20;29.60;75.10
3350;DHT22;1688;51.000;13.684;2023-08-24T07:28:53;28.50;80.50
3350;DHT22;1688;51.000;13.684;2023-08-24T07:31:26;27.80;85.50
3350;DHT22;1688;51.000;13.684;2023-08-24T07:33:59;27.20;89.10
3350;DHT22;1688;51.000;13.684;2023-08-24T07:36:32;26.90;91.30
3350;DHT22;1688;51.000;13.684;2023-08-24T07:39:05;26.50;92.90
3350;DHT22;1688;51.000;13.684;2023-08-24T07:41:38;26.00;94.40
3350;DHT22;1688;51.000;13.684;2023-08-24T07:44:11;25.70;96.60
3350;DHT22;1688;51.000;13.684;2023-08-24T07:46:43;25.50;98.20
3350;DHT22;1688;51.000;13.684;2023-08-24T07:49:16;25.40;98.30
3350;DHT22;1688;51.000;13.684;2023-08-24T07:51:49;25.40;99.30
3350;DHT22;1688;51.000;13.684;2023-08-24T07:54:22;25.50;99.80
3350;DHT22;1688;51.000;13.684;2023-08-24T07:56:55;25.50;99.30
3350;DHT22;1688;51.000;13.684;2023-08-24T07:59:28;25.60;99.70
3350;DHT22;1688;51.000;13.684;2023-08-24T08:02:01;25.50;99.80
3350;DHT22;1688;51.000;13.684;2023-08-24T08:04:34;25.40;99.90
3350;DHT22;1688;51.000;13.684;2023-08-24T08:07:06;25.40;99.90
3350;DHT22;1688;51.000;13.684;2023-08-24T08:09:40;25.40;99.90
3350;DHT22;1688;51.000;13.684;2023-08-24T08:12:12;25.60;99.90
3350;DHT22;1688;51.000;13.684;2023-08-24T08:14:45;25.70;99.90
3350;DHT22;1688;51.000;13.684;2023-08-24T08:17:18;25.90;99.90
3350;DHT22;1688;51.000;13.684;2023-08-24T08:19:54;26.00;98.80
3350;DHT22;1688;51.000;13.684;2023-08-24T08:22:28;26.10;98.70
3350;DHT22;1688;51.000;13.684;2023-08-24T08:25:01;26.10;98.60
3350;DHT22;1688;51.000;13.684;2023-08-24T08:27:34;26.10;98.40
3350;DHT22;1688;51.000;13.684;2023-08-24T08:30:07;26.30;97.80
3350;DHT22;1688;51.000;13.684;2023-08-24T08:32:40;26.50;96.70
3350;DHT22;1688;51.000;13.684;2023-08-24T08:35:13;26.70;96.70
3350;DHT22;1688;51.000;13.684;2023-08-24T08:37:46;26.90;96.40
3350;DHT22;1688;51.000;13.684;2023-08-24T08:40:19;26.90;96.10
3350;DHT22;1688;51.000;13.684;2023-08-24T08:42:53;26.90;97.00
3350;DHT22;1688;51.000;13.684;2023-08-24T08:45:26;27.00;96.30
3350;DHT22;1688;51.000;13.684;2023-08-24T08:48:00;27.10;95.90
3350;DHT22;1688;51.000;13.684;2023-08-24T08:50:34;27.10;95.20
3350;DHT22;1688;51.000;13.684;2023-08-24T08:53:08;27.20;95.50
3350;DHT22;1688;51.000;13.684;2023-08-24T08:55:41;27.10;94.90
3350;DHT22;1688;51.000;13.684;2023-08-24T08:58:14;27.30;94.30
3350;DHT22;1688;51.000;13.684;2023-08-24T09:00:48;27.40;93.80
3350;DHT22;1688;51.000;13.684;2023-08-24T09:03:22;27.50;93.10
3350;DHT22;1688;51.000;13.684;2023-08-24T09:05:57;27.60;92.90
3350;DHT22;1688;51.000;13.684;2023-08-24T09:08:30;27.80;92.90
3350;DHT22;1688;51.000;13.684;2023-08-24T09:11:04;27.90;93.00
3350;DHT22;1688;51.000;13.684;2023-08-24T09:13:40;27.90;92.40
3350;DHT22;1688;51.000;13.684;2023-08-24T09:16:14;28.00;92.20
3350;DHT22;1688;51.000;13.684;2023-08-24T09:18:48;28.10;91.50
3350;DHT22;1688;51.000;13.684;2023-08-24T09:21:23;28.20;91.40
3350;DHT22;1688;51.000;13.684;2023-08-24T09:23:57;27.70;90.70
3350;DHT22;1688;51.000;13.684;2023-08-24T09:26:32;27.50;91.70
3350;DHT22;1688;51.000;13.684;2023-08-24T09:29:12;27.60;91.20
3350;DHT22;1688;51.000;13.684;2023-08-24T09:31:45;27.80;90.50
3350;DHT22;1688;51.000;13.684;2023-08-24T09:34:24;27.90;90.30
3350;DHT22;1688;51.000;13.684;2023-08-24T09:36:59;27.90;89.90
3350;DHT22;1688;51.000;13.684;2023-08-24T09:39:32;27.90;89.90
3350;DHT22;1688;51.000;13.684;2023-08-24T09:42:04;28.10;90.30
3350;DHT22;1688;51.000;13.684;2023-08-24T09:44:37;28.50;90.20
3350;DHT22;1688;51.000;13.684;2023-08-24T09:47:11;28.80;87.10
3350;DHT22;1688;51.000;13.684;2023-08-24T09:49:44;29.00;86.30
3350;DHT22;1688;51.000;13.684;2023-08-24T09:52:19;29.20;89.20
3350;DHT22;1688;51.000;13.684;2023-08-24T09:54:53;29.40;86.80
3350;DHT22;1688;51.000;13.684;2023-08-24T09:57:26;29.70;85.20
3350;DHT22;1688;51.000;13.684;2023-08-24T09:59:59;29.60;82.90
3350;DHT22;1688;51.000;13.684;2023-08-24T10:05:38;29.10;83.30
3350;DHT22;1688;51.000;13.684;2023-08-24T10:08:35;28.90;83.30
3350;DHT22;1688;51.000;13.684;2023-08-24T10:11:10;28.80;86.20
3350;DHT22;1688;51.000;13.684;2023-08-24T10:14:00;28.80;82.80
3350;DHT22;1688;51.000;13.684;2023-08-24T10:16:40;29.00;83.90
3350;DHT22;1688;51.000;13.684;2023-08-24T10:19:15;29.10;83.10
3350;DHT22;1688;51.000;13.684;2023-08-24T10:21:49;29.40;83.40
3350;DHT22;1688;51.000;13.684;2023-08-24T10:24:23;29.50;79.90
3350;DHT22;1688;51.000;13.684;2023-08-24T10:26:57;29.00;79.60
3350;DHT22;1688;51.000;13.684;2023-08-24T10:29:30;28.60;82.00
3350;DHT22;1688;51.000;13.684;2023-08-24T10:32:04;28.20;83.00
3350;DHT22;1688;51.000;13.684;2023-08-24T10:34:37;28.10;82.60
3350;DHT22;1688;51.000;13.684;2023-08-24T10:37:11;28.10;83.00
3350;DHT22;1688;51.000;13.684;2023-08-24T10:39:46;28.20;82.10
3350;DHT22;1688;51.000;13.684;2023-08-24T10:42:19;28.30;81.40
3350;DHT22;1688;51.000;13.684;2023-08-24T10:44:53;28.50;81.70
3350;DHT22;1688;51.000;13.684;2023-08-24T10:47:26;28.90;81.70
3350;DHT22;1688;51.000;13.684;2023-08-24T10:49:59;28.80;82.00
3350;DHT22;1688;51.000;13.684;2023-08-24T10:52:35;28.70;81.20
3350;DHT22;1688;51.000;13.684;2023-08-24T10:55:24;28.60;80.40
3350;DHT22;1688;51.000;13.684;2023-08-24T10:57:59;28.40;79.90
3350;DHT22;1688;51.000;13.684;2023-08-24T11:00:32;28.40;80.10
3350;DHT22;1688;51.000;13.684;2023-08-24T11:03:05;28.50;80.90
3350;DHT22;1688;51.000;13.684;2023-08-24T11:05:38;28.30;79.60
3350;DHT22;1688;51.000;13.684;2023-08-24T11:08:11;28.30;80.40
3350;DHT22;1688;51.000;13.684;2023-08-24T11:13:19;28.30;80.10
3350;DHT22;1688;51.000;13.684;2023-08-24T11:15:52;28.10;81.60
3350;DHT22;1688;51.000;13.684;2023-08-24T11:18:30;28.20;79.80
3350;DHT22;1688;51.000;13.684;2023-08-24T11:21:05;28.30;80.70
3350;DHT22;1688;51.000;13.684;2023-08-24T11:23:39;28.30;80.20
3350;DHT22;1688;51.000;13.684;2023-08-24T11:26:12;28.40;79.20
3350;DHT22;1688;51.000;13.684;2023-08-24T11:28:45;28.40;79.30
3350;DHT22;1688;51.000;13.684;2023-08-24T11:31:18;28.40;79.60
3350;DHT22;1688;51.000;13.684;2023-08-24T11:33:54;28.60;78.90
3350;DHT22;1688;51.000;13.684;2023-08-24T11:37:02;28.60;77.80
3350;DHT22;1688;51.000;13.684;2023-08-24T11:39:35;28.40;78.30
3350;DHT22;1688;51.000;13.684;2023-08-24T11:42:08;28.10;79.20
3350;DHT22;1688;51.000;13.684;2023-08-24T11:44:49;28.00;80.20
3350;DHT22;1688;51.000;13.684;2023-08-24T11:47:22;27.80;80.40
3350;DHT22;1688;51.000;13.684;2023-08-24T11:49:56;27.70;80.70
3350;DHT22;1688;51.000;13.684;2023-08-24T11:52:33;27.60;81.30
3350;DHT22;1688;51.000;13.684;2023-08-24T11:55:11;27.60;82.60
3350;DHT22;1688;51.000;13.684;2023-08-24T11:57:44;27.60;81.20
3350;DHT22;1688;51.000;13.684;2023-08-24T12:00:19;27.60;82.40
3350;DHT22;1688;51.000;13.684;2023-08-24T12:02:53;27.60;82.90
3350;DHT22;1688;51.000;13.684;2023-08-24T12:05:26;27.80;82.90
3350;DHT22;1688;51.000;13.684;2023-08-24T12:08:00;27.80;81.40
3350;DHT22;1688;51.000;13.684;2023-08-24T12:10:33;27.90;82.00
3350;DHT22;1688;51.000;13.684;2023-08-24T12:13:08;27.90;81.50
3350;DHT22;1688;51.000;13.684;2023-08-24T12:15:45;27.70;82.00
3350;DHT22;1688;51.000;13.684;2023-08-24T12:18:19;27.60;83.20
3350;DHT22;1688;51.000;13.684;2023-08-24T12:20:52;27.60;82.10
3350;DHT22;1688;51.000;13.684;2023-08-24T12:23:27;27.70;81.60
3350;DHT22;1688;51.000;13.684;2023-08-24T12:26:00;27.80;81.40
3350;DHT22;1688;51.000;13.684;2023-08-24T12:28:33;27.90;81.90
3350;DHT22;1688;51.000;13.684;2023-08-24T12:31:05;28.00;82.00
3350;DHT22;1688;51.000;13.684;2023-08-24T12:33:38;28.00;82.50
3350;DHT22;1688;51.000;13.684;2023-08-24T12:36:11;28.00;81.20
3350;DHT22;1688;51.000;13.684;2023-08-24T12:38:44;28.20;81.80
3350;DHT22;1688;51.000;13.684;2023-08-24T12:41:18;28.30;80.40
3350;DHT22;1688;51.000;13.684;2023-08-24T12:43:51;28.40;80.70
3350;DHT22;1688;51.000;13.684;2023-08-24T12:46:25;28.40;79.60
3350;DHT22;1688;51.000;13.684;2023-08-24T12:49:00;28.30;80.50
3350;DHT22;1688;51.000;13.684;2023-08-24T12:51:33;28.70;80.70
3350;DHT22;1688;51.000;13.684;2023-08-24T12:54:06;28.80;79.60
3350;DHT22;1688;51.000;13.684;2023-08-24T12:56:42;29.10;78.40
3350;DHT22;1688;51.000;13.684;2023-08-24T12:59:15;29.50;77.00
3350;DHT22;1688;51.000;13.684;2023-08-24T13:01:48;29.80;76.80
3350;DHT22;1688;51.000;13.684;2023-08-24T13:04:21;29.90;75.80
3350;DHT22;1688;51.000;13.684;2023-08-24T13:06:54;29.90;75.10
3350;DHT22;1688;51.000;13.684;2023-08-24T13:09:26;29.80;76.40
3350;DHT22;1688;51.000;13.684;2023-08-24T13:11:59;29.80;75.80
3350;DHT22;1688;51.000;13.684;2023-08-24T13:14:32;29.80;76.20
3350;DHT22;1688;51.000;13.684;2023-08-24T13:17:05;30.10;78.60
3350;DHT22;1688;51.000;13.684;2023-08-24T13:19:38;30.50;76.00
3350;DHT22;1688;51.000;13.684;2023-08-24T13:22:11;30.30;75.70
3350;DHT22;1688;51.000;13.684;2023-08-24T13:24:44;30.10;78.20
3350;DHT22;1688;51.000;13.684;2023-08-24T13:27:20;30.30;78.60
3350;DHT22;1688;51.000;13.684;2023-08-24T13:32:29;30.70;76.90
3350;DHT22;1688;51.000;13.684;2023-08-24T13:35:03;30.70;76.20
3350;DHT22;1688;51.000;13.684;2023-08-24T13:37:36;30.40;75.60
3350;DHT22;1688;51.000;13.684;2023-08-24T13:40:09;30.30;77.90
3350;DHT22;1688;51.000;13.684;2023-08-24T13:42:42;30.30;77.30
3350;DHT22;1688;51.000;13.684;2023-08-24T13:45:15;30.40;76.10
3350;DHT22;1688;51.000;13.684;2023-08-24T13:47:48;30.30;78.20
3350;DHT22;1688;51.000;13.684;2023-08-24T13:50:21;30.50;79.60
3350;DHT22;1688;51.000;13.684;2023-08-24T13:52:54;30.80;77.20
3350;DHT22;1688;51.000;13.684;2023-08-24T13:55:29;30.80;75.50
3350;DHT22;1688;51.000;13.684;2023-08-24T13:58:03;30.70;75.90
3350;DHT22;1688;51.000;13.684;2023-08-24T14:00:36;30.20;77.20
3350;DHT22;1688;51.000;13.684;2023-08-24T14:03:08;29.90;78.20
3350;DHT22;1688;51.000;13.684;2023-08-24T14:05:41;29.70;78.70
3350;DHT22;1688;51.000;13.684;2023-08-24T14:08:14;29.70;79.30
3350;DHT22;1688;51.000;13.684;2023-08-24T14:10:47;29.60;80.00
3350;DHT22;1688;51.000;13.684;2023-08-24T14:13:21;29.50;79.90
3350;DHT22;1688;51.000;13.684;2023-08-24T14:15:54;29.50;80.20
3350;DHT22;1688;51.000;13.684;2023-08-24T14:18:28;29.50;80.30
3350;DHT22;1688;51.000;13.684;2023-08-24T14:21:02;29.40;80.80
3350;DHT22;1688;51.000;13.684;2023-08-24T14:23:35;29.60;81.20
3350;DHT22;1688;51.000;13.684;2023-08-24T14:26:08;29.90;80.20
3350;DHT22;1688;51.000;13.684;2023-08-24T14:28:56;29.80;79.70
3350;DHT22;1688;51.000;13.684;2023-08-24T14:31:30;29.80;80.40
3350;DHT22;1688;51.000;13.684;2023-08-24T14:34:03;29.80;79.90
3350;DHT22;1688;51.000;13.684;2023-08-24T14:36:37;29.80;80.60
3350;DHT22;1688;51.000;13.684;2023-08-24T14:39:10;30.00;80.60
3350;DHT22;1688;51.000;13.684;2023-08-24T14:41:43;30.20;79.40
3350;DHT22;1688;51.000;13.684;2023-08-24T14:44:15;30.40;78.80
3350;DHT22;1688;51.000;13.684;2023-08-24T14:46:48;30.40;78.40
3350;DHT22;1688;51.000;13.684;2023-08-24T14:49:21;30.40;78.80
3350;DHT22;1688;51.000;13.684;2023-08-24T14:51:55;30.50;79.30
3350;DHT22;1688;51.000;13.684;2023-08-24T14:54:28;30.70;79.00
3350;DHT22;1688;51.000;13.684;2023-08-24T14:57:01;30.90;79.10
3350;DHT22;1688;51.000;13.684;2023-08-24T14:59:35;30.90;78.10
3350;DHT22;1688;51.000;13.684;2023-08-24T15:02:09;30.90;78.40
3350;DHT22;1688;51.000;13.684;2023-08-24T15:04:42;31.20;79.10
3350;DHT22;1688;51.000;13.684;2023-08-24T15:07:14;31.30;76.40
3350;DHT22;1688;51.000;13.684;2023-08-24T15:09:47;31.50;76.50
3350;DHT22;1688;51.000;13.684;2023-08-24T15:12:20;31.70;77.30
3350;DHT22;1688;51.000;13.684;2023-08-24T15:15:02;31.80;74.60
3350;DHT22;1688;51.000;13.684;2023-08-24T15:17:35;31.80;74.30
3350;DHT22;1688;51.000;13.684;2023-08-24T15:20:11;31.90;74.60
3350;DHT22;1688;51.000;13.684;2023-08-24T15:22:48;31.90;72.40
3350;DHT22;1688;51.000;13.684;2023-08-24T15:25:21;31.90;73.50
3350;DHT22;1688;51.000;13.684;2023-08-24T15:27:54;31.90;73.20
3350;DHT22;1688;51.000;13.684;2023-08-24T15:30:27;31.80;72.80
3350;DHT22;1688;51.000;13.684;2023-08-24T15:33:00;31.80;73.00
3350;DHT22;1688;51.000;13.684;2023-08-24T15:35:33;31.90;73.10
3350;DHT22;1688;51.000;13.684;2023-08-24T15:38:06;31.80;72.80
3350;DHT22;1688;51.000;13.684;2023-08-24T15:40:39;31.70;72.70
3350;DHT22;1688;51.000;13.684;2023-08-24T15:43:13;31.70;73.60
3350;DHT22;1688;51.000;13.684;2023-08-24T15:45:49;31.60;74.50
3350;DHT22;1688;51.000;13.684;2023-08-24T15:48:22;31.60;74.60
3350;DHT22;1688;51.000;13.684;2023-08-24T15:50:57;31.30;71.80
3350;DHT22;1688;51.000;13.684;2023-08-24T15:53:31;31.20;73.70
3350;DHT22;1688;51.000;13.684;2023-08-24T15:56:04;31.20;73.90
3350;DHT22;1688;51.000;13.684;2023-08-24T15:58:37;31.20;74.00
3350;DHT22;1688;51.000;13.684;2023-08-24T16:01:11;31.10;74.10
3350;DHT22;1688;51.000;13.684;2023-08-24T16:03:44;31.00;73.70
3350;DHT22;1688;51.000;13.684;2023-08-24T16:06:17;30.90;73.70
3350;DHT22;1688;51.000;13.684;2023-08-24T16:08:50;30.70;75.70
3350;DHT22;1688;51.000;13.684;2023-08-24T16:11:23;30.50;76.30
3350;DHT22;1688;51.000;13.684;2023-08-24T16:13:56;30.30;77.30
3350;DHT22;1688;51.000;13.684;2023-08-24T16:16:29;29.90;77.70
3350;DHT22;1688;51.000;13.684;2023-08-24T16:19:02;29.50;79.20
3350;DHT22;1688;51.000;13.684;2023-08-24T16:21:35;29.40;79.90
3350;DHT22;1688;51.000;13.684;2023-08-24T16:24:08;29.20;80.10
3350;DHT22;1688;51.000;13.684;2023-08-24T16:26:42;29.00;81.10
3350;DHT22;1688;51.000;13.684;2023-08-24T16:29:15;28.90;81.50
3350;DHT22;1688;51.000;13.684;2023-08-24T16:31:48;28.80;82.00
3350;DHT22;1688;51.000;13.684;2023-08-24T16:34:21;28.80;82.50
3350;DHT22;1688;51.000;13.684;2023-08-24T16:36:55;28.80;82.80
3350;DHT22;1688;51.000;13.684;2023-08-24T16:39:29;28.80;83.00
3350;DHT22;1688;51.000;13.684;2023-08-24T16:42:03;28.80;83.20